Time;durP1;ratioP1;P1;durP2;ratioP2;P2;SDS_P1;SDS_P2;PMS_P1;PMS_P2;Temp;Humidity;BMP_temperature;BMP_pressure;BME280_temperature;BME280_humidity;BME280_pressure;Samples;Min_cycle;Max_cycle;Signal;HPM_P1;HPM_P2
2023/05/15 00:00:16;;;;;;;4.75;2.63;;;;;;;0.01;0.00;59042.03;10463403;28;20040;-75
2023/05/15 00:05:17;;;;;;;4.43;2.28;;;;;;;0.01;0.00;59042.03;10440492;28;20045;-75
2023/05/15 00:10:19;;;;;;;5.43;2.78;;;;;;;0.01;0.00;59042.03;10464523;28;20044;-76
2023/05/15 00:15:20;;;;;;;5.32;2.92;;;;;;;0.01;0.00;59042.03;10457499;28;20151;-76
2023/05/15 00:20:22;;;;;;;5.70;2.78;;;;;;;0.01;0.00;59042.03;10456388;28;20053;-76
2023/05/15 00:25:24;;;;;;;7.43;3.08;;;;;;;0.01;0.00;59042.03;10473304;28;20044;-75
2023/05/15 00:30:27;;;;;;;5.07;2.42;;;;;;;0.01;0.00;59042.03;10472441;28;20098;-77
2023/05/15 00:35:28;;;;;;;5.50;2.85;;;;;;;0.01;0.00;59042.03;10464370;28;20049;-76
2023/05/15 00:40:32;;;;;;;5.07;2.60;;;;;;;0.01;0.00;59042.03;10439573;28;20378;-76
2023/05/15 00:45:34;;;;;;;7.30;3.50;;;;;;;0.01;0.00;59042.03;10430041;28;20527;-75
2023/05/15 00:50:37;;;;;;;6.22;3.15;;;;;;;0.01;0.00;59042.03;10454760;28;20048;-75
2023/05/15 00:55:41;;;;;;;7.22;3.45;;;;;;;0.01;0.00;59042.03;10456617;28;20044;-75
2023/05/15 01:00:45;;;;;;;7.70;4.22;;;;;;;0.01;0.00;59042.03;10450140;28;20048;-76
2023/05/15 01:05:46;;;;;;;7.00;3.70;;;;;;;0.01;0.00;59042.03;10468161;28;20517;-78
2023/05/15 01:10:50;;;;;;;8.73;4.25;;;;;;;0.01;0.00;59042.03;10446937;28;20040;-75
2023/05/15 01:15:53;;;;;;;8.00;4.05;;;;;;;0.01;0.00;59042.03;10438614;28;20078;-76
2023/05/15 01:21:04;;;;;;;10.88;3.83;;;;;;;0.01;0.00;59042.03;10449575;28;20040;-75
2023/05/15 01:26:33;;;;;;;8.18;4.28;;;;;;;0.01;0.00;59042.03;10441243;28;20045;-75
2023/05/15 01:31:39;;;;;;;9.35;4.57;;;;;;;0.01;0.00;59042.03;10438639;28;20072;-76
2023/05/15 01:36:52;;;;;;;7.43;3.65;;;;;;;0.01;0.00;59042.03;10436327;28;20398;-75
2023/05/15 01:42:10;;;;;;;8.07;4.07;;;;;;;0.01;0.00;59042.03;10464815;28;20210;-75
2023/05/15 01:47:14;;;;;;;10.73;4.75;;;;;;;0.01;0.00;59042.03;10470311;28;20133;-76
2023/05/15 01:52:31;;;;;;;9.10;3.88;;;;;;;0.01;0.00;59042.03;10478837;28;20094;-76
2023/05/15 01:57:34;;;;;;;8.57;4.03;;;;;;;0.01;0.00;59042.03;10456574;28;20048;-75
2023/05/15 02:02:36;;;;;;;8.45;4.32;;;;;;;0.01;0.00;59042.03;10454957;28;20048;-76
2023/05/15 02:07:41;;;;;;;9.82;4.53;;;;;;;0.01;0.00;59042.03;10469424;28;20148;-75
2023/05/15 02:12:43;;;;;;;11.07;4.80;;;;;;;0.01;0.00;59042.03;10453971;28;20044;-75
2023/05/15 02:17:45;;;;;;;8.82;3.78;;;;;;;0.01;0.00;59042.03;10459120;28;20045;-75
2023/05/15 02:22:47;;;;;;;10.45;4.72;;;;;;;0.01;0.00;59042.03;10433227;28;20418;-74
2023/05/15 02:27:59;;;;;;;9.70;4.88;;;;;;;0.01;0.00;59042.03;10487798;28;20044;-75
2023/05/15 02:33:22;;;;;;;9.40;4.28;;;;;;;0.01;0.00;59042.03;10457095;28;20036;-75
2023/05/15 02:38:29;;;;;;;8.45;3.97;;;;;;;0.01;0.00;59042.03;10473821;28;20053;-75
2023/05/15 02:43:32;;;;;;;7.93;3.67;;;;;;;0.01;0.00;59042.03;10459336;28;20052;-74
2023/05/15 02:48:38;;;;;;;8.38;3.83;;;;;;;0.01;0.00;59042.03;10470419;28;20041;-74
2023/05/15 02:53:41;;;;;;;9.18;4.10;;;;;;;0.01;0.00;59042.03;10459795;28;20075;-76
2023/05/15 02:58:43;;;;;;;13.30;5.40;;;;;;;0.01;0.00;59042.03;10452899;28;20652;-76
2023/05/15 03:03:46;;;;;;;9.73;5.00;;;;;;;0.01;0.00;59042.03;10471484;28;20390;-75
2023/05/15 03:08:47;;;;;;;12.63;5.53;;;;;;;0.01;0.00;59042.03;10483564;28;20114;-74
2023/05/15 03:13:50;;;;;;;13.95;6.53;;;;;;;0.01;0.00;59042.03;10461068;28;20594;-76
2023/05/15 03:18:51;;;;;;;16.30;6.78;;;;;;;0.01;0.00;59042.03;10468298;28;20696;-74
2023/05/15 03:23:53;;;;;;;13.57;6.80;;;;;;;0.01;0.00;59042.03;10466032;28;20441;-75
2023/05/15 03:28:57;;;;;;;14.80;7.07;;;;;;;0.01;0.00;59042.03;10475023;28;20076;-75
2023/05/15 03:33:58;;;;;;;17.33;8.02;;;;;;;0.01;0.00;59042.03;10443132;28;20425;-75
2023/05/15 03:39:00;;;;;;;16.15;6.93;;;;;;;0.01;0.00;59042.03;10460462;28;20067;-75
2023/05/15 03:44:02;;;;;;;13.05;7.03;;;;;;;0.01;0.00;59042.03;10465795;28;20127;-75
2023/05/15 03:49:04;;;;;;;17.63;8.05;;;;;;;0.01;0.00;59042.03;10463792;28;20808;-76
2023/05/15 03:54:08;;;;;;;15.07;7.13;;;;;;;0.01;0.00;59042.03;10477030;28;20473;-74
2023/05/15 03:59:10;;;;;;;16.10;8.00;;;;;;;0.01;0.00;59042.03;10481090;28;20519;-76
2023/05/15 04:04:11;;;;;;;16.00;8.02;;;;;;;0.01;0.00;59042.03;10464061;28;20037;-76
2023/05/15 04:09:13;;;;;;;16.83;8.88;;;;;;;0.01;0.00;59042.03;10419179;28;20044;-77
2023/05/15 04:14:14;;;;;;;15.45;7.88;;;;;;;0.01;0.00;59042.03;10459137;28;20037;-75
2023/05/15 04:19:16;;;;;;;17.90;8.25;;;;;;;0.01;0.00;59042.03;10465469;28;20599;-75
2023/05/15 04:24:18;;;;;;;16.25;7.55;;;;;;;0.01;0.00;59042.03;10478723;28;20056;-75
2023/05/15 04:29:20;;;;;;;15.27;9.00;;;;;;;0.01;0.00;59042.03;10449783;28;20056;-76
2023/05/15 04:34:21;;;;;;;19.10;8.70;;;;;;;0.01;0.00;59042.03;10440965;28;20039;-75
2023/05/15 04:39:23;;;;;;;18.00;8.80;;;;;;;0.01;0.00;59042.03;10443936;28;20048;-77
2023/05/15 04:44:24;;;;;;;20.25;9.27;;;;;;;0.01;0.00;59042.03;10456893;28;20064;-75
2023/05/15 04:49:26;;;;;;;20.60;9.27;;;;;;;0.01;0.00;59042.03;10471839;28;20493;-75
2023/05/15 04:54:28;;;;;;;19.23;9.45;;;;;;;0.01;0.00;59042.03;10456170;28;20046;-75
2023/05/15 04:59:29;;;;;;;19.15;9.65;;;;;;;0.01;0.00;59042.03;10451098;28;20048;-75
2023/05/15 05:04:31;;;;;;;18.75;10.15;;;;;;;0.01;0.00;59042.03;10445283;28;20051;-75
2023/05/15 05:09:33;;;;;;;16.02;7.95;;;;;;;0.01;0.00;59042.03;10465626;28;20052;-76
2023/05/15 05:14:35;;;;;;;21.52;9.70;;;;;;;0.01;0.00;59042.03;10423486;28;20041;-75
2023/05/15 05:19:37;;;;;;;23.45;9.43;;;;;;;0.01;0.00;59042.03;10438832;28;20048;-75
2023/05/15 05:24:38;;;;;;;19.38;9.60;;;;;;;0.01;0.00;59042.03;10479745;28;20037;-76
2023/05/15 05:29:40;;;;;;;19.52;9.95;;;;;;;0.01;0.00;59042.03;10464601;28;20053;-76
2023/05/15 05:34:41;;;;;;;19.63;8.95;;;;;;;0.01;0.00;59042.03;10480633;28;20040;-77
2023/05/15 05:39:43;;;;;;;18.33;9.52;;;;;;;0.01;0.00;59042.03;10469651;28;20047;-75
2023/05/15 05:44:44;;;;;;;17.50;8.25;;;;;;;0.01;0.00;59042.03;10451437;28;20103;-75
2023/05/15 05:49:46;;;;;;;15.63;7.65;;;;;;;0.01;0.00;59042.03;10477501;28;20496;-75
2023/05/15 05:54:48;;;;;;;15.75;7.50;;;;;;;0.01;0.00;59042.03;10452417;28;20107;-77
2023/05/15 05:59:50;;;;;;;17.92;7.85;;;;;;;0.01;0.00;59042.03;10456315;28;20046;-77
2023/05/15 06:04:51;;;;;;;15.63;7.15;;;;;;;0.01;0.00;59042.03;10492695;28;20040;-74
2023/05/15 06:09:53;;;;;;;18.73;8.13;;;;;;;0.01;0.00;59042.03;10494156;28;20051;-75
2023/05/15 06:14:55;;;;;;;17.73;6.22;;;;;;;0.01;0.00;59042.03;10465341;28;20041;-75
2023/05/15 06:19:56;;;;;;;18.50;7.53;;;;;;;0.01;0.00;59042.03;10467345;28;20484;-74
2023/05/15 06:24:58;;;;;;;15.82;6.90;;;;;;;0.01;0.00;59042.03;10464662;28;20098;-74
2023/05/15 06:29:59;;;;;;;17.60;7.00;;;;;;;0.01;0.00;59042.03;10476730;28;20252;-74
2023/05/15 06:35:01;;;;;;;16.25;6.65;;;;;;;0.01;0.00;59042.03;10466147;28;20059;-74
2023/05/15 06:40:04;;;;;;;17.48;7.35;;;;;;;0.01;0.00;59042.03;10466181;28;20044;-74
2023/05/15 06:45:07;;;;;;;19.27;7.82;;;;;;;0.00;0.00;73473.09;10443649;28;20071;-75
2023/05/15 06:50:09;;;;;;;18.80;7.68;;;;;;;0.00;0.00;73349.50;10439642;28;20517;-74
2023/05/15 06:55:10;;;;;;;17.70;7.53;;;;;;;0.00;0.00;73277.78;10466037;28;20460;-75
2023/05/15 07:00:13;;;;;;;17.58;8.05;;;;;;;0.00;0.00;73215.22;10455925;28;20090;-74
2023/05/15 07:05:14;;;;;;;13.05;6.18;;;;;;;0.00;0.00;73212.16;10457477;28;20044;-74
2023/05/15 07:10:16;;;;;;;14.75;6.93;;;;;;;0.00;0.00;73184.69;10469918;28;20048;-75
2023/05/15 07:15:17;;;;;;;;;;;;;;;0.00;0.00;73183.16;10477198;28;20456;-74
2023/05/15 07:20:19;;;;;;;14.38;5.25;;;;;;;0.00;0.00;73163.31;10456454;28;20531;-75
2023/05/15 07:25:21;;;;;;;13.30;5.65;;;;;;;0.00;0.00;73111.44;10452354;28;20419;-75
2023/05/15 07:30:22;;;;;;;7.75;4.40;;;;;;;0.00;0.00;73053.47;10457109;28;20450;-74
2023/05/15 07:35:24;;;;;;;10.77;5.40;;;;;;;0.00;0.00;73070.25;10441706;28;20032;-74
2023/05/15 07:40:26;;;;;;;11.15;5.35;;;;;;;0.00;0.00;73042.78;10483931;28;20416;-75
2023/05/15 07:45:28;;;;;;;9.27;4.55;;;;;;;0.00;0.00;73103.81;10463272;28;20052;-74
2023/05/15 07:50:30;;;;;;;11.50;5.05;;;;;;;0.00;0.00;73044.31;10470557;28;20127;-74
2023/05/15 07:55:31;;;;;;;8.60;4.68;;;;;;;0.00;0.00;73056.53;10481780;28;20488;-74
2023/05/15 08:00:33;;;;;;;9.27;4.63;;;;;;;0.00;0.00;72998.53;10464903;28;20055;-74
2023/05/15 08:05:35;;;;;;;12.13;4.93;;;;;;;0.00;0.00;72995.47;10438159;28;20044;-75
2023/05/15 08:10:37;;;;;;;8.65;4.30;;;;;;;0.00;0.00;72977.16;10472777;28;20072;-74
2023/05/15 08:15:39;;;;;;;11.45;4.93;;;;;;;0.00;0.00;73010.75;10465039;28;20132;-74
2023/05/15 08:20:41;;;;;;;9.43;4.68;;;;;;;0.00;0.00;72980.22;10472687;28;20526;-74
2023/05/15 08:25:43;;;;;;;12.68;5.80;;;;;;;0.00;0.00;72934.44;10455761;28;20416;-73
2023/05/15 08:30:44;;;;;;;10.32;5.07;;;;;;;0.00;0.00;72928.34;10458657;28;20166;-73
2023/05/15 08:35:46;;;;;;;12.15;5.63;;;;;;;0.00;0.00;72943.59;10463635;28;20086;-73
2023/05/15 08:40:49;;;;;;;11.35;5.80;;;;;;;0.00;0.00;72926.81;10450817;28;20041;-74
2023/05/15 08:45:52;;;;;;;9.43;4.78;;;;;;;0.00;0.00;72960.38;10454371;28;20282;-74
2023/05/15 08:50:58;;;;;;;11.57;5.63;;;;;;;0.00;0.00;73004.63;10472497;28;20080;-74
2023/05/15 08:56:00;;;;;;;10.13;5.28;;;;;;;0.00;0.00;72969.53;10454627;28;20470;-76
2023/05/15 09:01:02;;;;;;;12.35;6.15;;;;;;;0.00;0.00;72969.53;10448362;28;20515;-76
2023/05/15 09:06:04;;;;;;;11.95;5.70;;;;;;;0.00;0.00;72987.84;10446457;28;20041;-75
2023/05/15 09:11:06;;;;;;;11.57;5.78;;;;;;;0.00;0.00;72960.38;10462267;28;20064;-75
2023/05/15 09:16:08;;;;;;;10.05;5.57;;;;;;;0.00;0.00;72923.75;10457345;28;20048;-74
2023/05/15 09:21:27;;;;;;;10.32;5.38;;;;;;;0.00;0.00;72906.97;10478994;28;20070;-74
2023/05/15 09:26:29;;;;;;;9.95;5.35;;;;;;;0.00;0.00;72922.25;10445621;28;20051;-73
2023/05/15 09:31:30;;;;;;;9.77;5.53;;;;;;;0.00;0.00;72870.34;10452432;28;20048;-74
2023/05/15 09:36:32;;;;;;;10.32;5.72;;;;;;;0.00;0.00;72882.56;10437341;28;20041;-74
2023/05/15 09:41:34;;;;;;;12.70;5.85;;;;;;;0.00;0.00;72874.94;10436912;28;20041;-74
2023/05/15 09:46:36;;;;;;;13.73;5.57;;;;;;;0.00;0.00;72887.16;10436338;28;20516;-74
2023/05/15 09:51:38;;;;;;;12.98;6.00;;;;;;;0.00;0.00;72882.56;10438035;28;20122;-74
2023/05/15 09:56:41;;;;;;;11.82;5.65;;;;;;;0.00;0.00;72827.63;10441045;28;20379;-74
2023/05/15 10:01:45;;;;;;;10.23;5.20;;;;;;;0.00;0.00;72815.44;10439521;28;20044;-75
2023/05/15 10:06:47;;;;;;;13.68;5.72;;;;;;;0.00;0.00;72844.41;10438455;28;20412;-74
2023/05/15 10:11:54;;;;;;;10.60;5.43;;;;;;;0.00;0.00;72827.63;10463850;28;20032;-74
2023/05/15 10:16:56;;;;;;;9.68;5.15;;;;;;;0.00;0.00;72829.16;10470800;28;20044;-76
2023/05/15 10:21:59;;;;;;;9.77;4.72;;;;;;;0.00;0.00;72757.44;10485254;28;20515;-75
2023/05/15 10:27:02;;;;;;;10.40;4.60;;;;;;;0.00;0.00;72723.88;10462081;28;20424;-75
2023/05/15 10:32:05;;;;;;;8.95;4.75;;;;;;;0.00;0.00;72688.78;10445386;28;20040;-74
2023/05/15 10:37:07;;;;;;;10.50;5.10;;;;;;;0.00;0.00;72746.75;10453999;28;20098;-75
2023/05/15 10:42:10;;;;;;;11.98;5.53;;;;;;;0.00;0.00;72722.34;10452379;28;20053;-75
2023/05/15 10:47:11;;;;;;;10.57;5.22;;;;;;;0.00;0.00;72757.44;10470009;28;20048;-75
2023/05/15 10:52:15;;;;;;;10.15;5.50;;;;;;;0.00;0.00;72729.97;10469722;28;20050;-75
2023/05/15 10:57:16;;;;;;;13.77;5.85;;;;;;;0.00;0.00;72771.19;10484591;28;20050;-76
2023/05/15 11:02:29;;;;;;;10.63;5.32;;;;;;;0.00;0.00;72853.56;10452533;28;20040;-75
2023/05/15 11:07:30;;;;;;;11.68;5.90;;;;;;;0.00;0.00;72876.47;10455644;28;20079;-75
2023/05/15 11:12:58;;;;;;;10.18;5.18;;;;;;;0.00;0.00;72903.94;10460654;28;20043;-75
2023/05/15 11:18:02;;;;;;;9.73;5.05;;;;;;;0.00;0.00;72845.94;10468996;28;20118;-76
2023/05/15 11:23:04;;;;;;;14.05;5.22;;;;;;;0.00;0.00;72774.22;10460207;28;20424;-76
2023/05/15 11:28:19;;;;;;;15.30;6.65;;;;;;;0.00;0.00;72794.06;10443161;28;20048;-75
2023/05/15 11:33:21;;;;;;;10.57;4.72;;;;;;;0.00;0.00;72797.13;10451254;28;20519;-76
2023/05/15 11:38:24;;;;;;;13.50;5.45;;;;;;;0.00;0.00;72745.25;10444919;28;20044;-75
2023/05/15 11:43:25;;;;;;;10.32;5.57;;;;;;;0.00;0.00;72725.41;10465482;28;20048;-75
2023/05/15 11:48:32;;;;;;;9.50;5.25;;;;;;;0.00;0.00;72733.03;10465765;28;20095;-75
2023/05/15 11:53:34;;;;;;;10.57;5.32;;;;;;;0.00;0.00;72729.97;10455905;28;20044;-76
2023/05/15 11:58:37;;;;;;;12.93;5.63;;;;;;;0.00;0.00;72772.69;10450094;28;20045;-76
2023/05/15 12:03:39;;;;;;;12.38;5.32;;;;;;;0.00;0.00;72757.44;10479192;28;20409;-75
2023/05/15 12:08:41;;;;;;;12.43;5.38;;;;;;;0.00;0.00;72797.13;10462287;28;20091;-75
2023/05/15 12:13:42;;;;;;;11.85;5.25;;;;;;;0.00;0.00;72742.19;10459898;28;20029;-76
2023/05/15 12:18:46;;;;;;;10.82;4.78;;;;;;;0.00;0.00;72736.09;10470849;28;20048;-75
2023/05/15 12:23:52;;;;;;;10.07;4.95;;;;;;;0.00;0.00;72743.72;10461499;28;20045;-76
2023/05/15 12:28:56;;;;;;;9.25;4.38;;;;;;;0.00;0.00;72746.75;10456160;28;20051;-76
2023/05/15 12:33:58;;;;;;;10.40;5.28;;;;;;;0.00;0.00;72809.31;10471533;28;20036;-76
2023/05/15 12:39:05;;;;;;;10.65;5.57;;;;;;;0.00;0.00;72824.59;10451274;28;20504;-76
2023/05/15 12:44:15;;;;;;;13.02;4.93;;;;;;;0.00;0.00;72791.00;10472610;28;20036;-75
2023/05/15 12:49:22;;;;;;;9.85;5.00;;;;;;;0.00;0.00;72745.25;10464951;28;20497;-76
2023/05/15 12:54:25;;;;;;;10.07;4.53;;;;;;;0.00;0.00;72723.88;10440771;28;20190;-75
2023/05/15 12:59:27;;;;;;;9.88;4.60;;;;;;;0.00;0.00;72672.00;10464247;28;20045;-75
2023/05/15 13:04:32;;;;;;;7.70;3.70;;;;;;;0.00;0.00;72675.03;10453264;28;20075;-76
2023/05/15 13:09:34;;;;;;;6.97;3.30;;;;;;;0.00;0.00;72679.63;10456340;28;20048;-75
2023/05/15 13:14:35;;;;;;;4.78;2.55;;;;;;;0.00;0.00;72684.19;10459899;28;20127;-76
2023/05/15 13:19:37;;;;;;;4.45;2.53;;;;;;;0.00;0.00;72673.53;10464828;28;20035;-75
2023/05/15 13:24:39;;;;;;;4.10;2.30;;;;;;;0.00;0.00;72664.38;10472340;28;20450;-77
2023/05/15 13:29:41;;;;;;;4.15;2.30;;;;;;;0.00;0.00;72687.25;10447482;28;20045;-77
2023/05/15 13:34:43;;;;;;;4.22;2.03;;;;;;;0.00;0.00;72673.53;10430913;28;20038;-78
2023/05/15 13:39:45;;;;;;;5.32;2.47;;;;;;;0.00;0.00;72717.78;10435780;28;20527;-79
2023/05/15 13:44:47;;;;;;;4.95;2.30;;;;;;;0.00;0.00;72714.72;10462297;28;20039;-78
2023/05/15 13:49:50;;;;;;;4.13;2.05;;;;;;;0.00;0.00;72733.03;10462798;28;20045;-81
2023/05/15 13:54:53;;;;;;;3.53;1.90;;;;;;;0.00;0.00;72766.59;10469551;28;20052;-78
2023/05/15 13:59:54;;;;;;;3.22;1.67;;;;;;;0.00;0.00;72801.69;10482708;28;20037;-81
2023/05/15 14:04:56;;;;;;;4.55;1.85;;;;;;;0.00;0.00;72772.69;10449650;28;20124;-79
2023/05/15 14:09:58;;;;;;;3.58;2.03;;;;;;;0.00;0.00;72733.03;10467442;28;20072;-86
2023/05/15 14:15:00;;;;;;;4.53;2.28;;;;;;;0.00;0.00;72748.28;10459111;28;20049;-85
2023/05/15 14:20:04;;;;;;;5.07;2.30;;;;;;;0.00;0.00;72795.59;10457539;28;20123;-85
2023/05/15 14:25:06;;;;;;;3.90;2.00;;;;;;;0.00;0.00;72751.34;10466037;28;20135;-85
2023/05/15 14:30:08;;;;;;;3.03;1.73;;;;;;;0.00;0.00;72743.72;10471795;28;20896;-84
2023/05/15 14:35:10;;;;;;;4.35;2.13;;;;;;;0.00;0.00;72786.44;10459091;28;20131;-86
2023/05/15 14:40:12;;;;;;;4.95;2.15;;;;;;;0.00;0.00;72794.06;10452685;28;20412;-84
2023/05/15 14:45:14;;;;;;;4.50;2.10;;;;;;;0.00;0.00;72804.75;10467923;28;20045;-86
2023/05/15 14:50:16;;;;;;;4.32;2.17;;;;;;;0.00;0.00;72755.91;10450010;28;20049;-85
2023/05/15 14:55:21;;;;;;;4.95;2.22;;;;;;;0.00;0.00;72757.44;10447073;28;20051;-83
2023/05/15 15:00:23;;;;;;;3.85;2.00;;;;;;;0.00;0.00;72792.53;10449769;28;20119;-85
2023/05/15 15:05:25;;;;;;;3.13;1.70;;;;;;;0.00;0.00;72748.28;10460362;28;20056;-85
2023/05/15 15:10:27;;;;;;;3.50;1.98;;;;;;;0.00;0.00;72739.13;10494426;28;20044;-86
2023/05/15 15:15:33;;;;;;;7.93;2.42;;;;;;;0.00;0.00;72780.34;10457617;28;20049;-85
2023/05/15 15:20:35;;;;;;;6.57;3.65;;;;;;;0.00;0.00;72821.53;10491844;28;20052;-84
2023/05/15 15:25:36;;;;;;;3.88;2.28;;;;;;;0.00;0.00;72867.31;10482972;28;20052;-84
2023/05/15 15:30:38;;;;;;;5.55;2.35;;;;;;;0.00;0.00;72842.91;10498345;28;20100;-83
2023/05/15 15:35:40;;;;;;;5.72;2.50;;;;;;;0.00;0.00;72810.84;10487960;28;20975;-84
2023/05/15 15:40:41;;;;;;;3.70;2.10;;;;;;;0.00;0.00;72820.00;10492672;28;20068;-84
2023/05/15 15:45:43;;;;;;;6.45;3.28;;;;;;;0.00;0.00;72862.72;10473106;28;20050;-85
2023/05/15 15:50:45;;;;;;;9.73;2.53;;;;;;;0.00;0.00;72870.34;10441095;28;20119;-82
2023/05/15 15:55:46;;;;;;;5.28;2.50;;;;;;;0.00;0.00;72879.50;10444513;28;20037;-82
2023/05/15 16:00:48;;;;;;;6.50;2.20;;;;;;;0.00;0.00;72868.84;10458667;28;20041;-83
2023/05/15 16:05:50;;;;;;;6.45;2.40;;;;;;;0.00;0.00;72894.78;10473256;28;20094;-81
2023/05/15 16:10:53;;;;;;;5.50;2.50;;;;;;;0.00;0.00;72906.97;10483468;28;20052;-82
2023/05/15 16:15:55;;;;;;;4.00;2.05;;;;;;;0.00;0.00;72900.88;10455404;28;20132;-85
2023/05/15 16:20:57;;;;;;;5.07;2.15;;;;;;;0.00;0.00;72942.06;10464796;28;20076;-85
2023/05/15 16:26:01;;;;;;;3.85;2.00;;;;;;;0.00;0.00;72955.81;10440875;28;20052;-82
2023/05/15 16:31:03;;;;;;;4.07;1.88;;;;;;;0.00;0.00;72955.81;10479842;28;20424;-81
2023/05/15 16:36:05;;;;;;;4.80;2.15;;;;;;;0.00;0.00;73010.75;10450111;28;20045;-80
2023/05/15 16:41:06;;;;;;;4.28;2.30;;;;;;;0.00;0.00;73022.94;10473324;28;20059;-79
2023/05/15 16:46:09;;;;;;;4.53;2.28;;;;;;;0.00;0.00;73022.94;10477391;28;20049;-80
2023/05/15 16:51:10;;;;;;;5.53;2.50;;;;;;;0.00;0.00;73059.56;10468431;28;20075;-79
2023/05/15 16:56:12;;;;;;;4.90;2.47;;;;;;;0.00;0.00;73135.88;10498132;28;20045;-80
2023/05/15 17:01:15;;;;;;;5.10;2.53;;;;;;;0.00;0.00;73190.78;10469749;28;20078;-79
2023/05/15 17:06:16;;;;;;;5.30;2.42;;;;;;;0.00;0.00;73248.78;10482611;28;20064;-79
2023/05/15 17:11:19;;;;;;;5.30;2.63;;;;;;;0.00;0.00;73289.97;10472947;28;20278;-80
2023/05/15 17:16:20;;;;;;;5.90;2.72;;;;;;;0.00;0.00;73323.53;10490290;28;20309;-80
2023/05/15 17:21:22;;;;;;;4.95;2.47;;;;;;;0.00;0.00;73360.16;10475496;28;20044;-79
2023/05/15 17:26:25;;;;;;;6.75;2.72;;;;;;;0.00;0.00;73407.47;10473521;28;20037;-81
2023/05/15 17:31:28;;;;;;;5.78;2.50;;;;;;;0.00;0.00;73442.56;10481148;28;20037;-82
2023/05/15 17:36:30;;;;;;;5.78;2.33;;;;;;;0.01;0.00;59042.03;10486377;28;20048;-83
2023/05/15 17:41:31;;;;;;;4.80;2.50;;;;;;;0.01;0.00;59042.03;10484204;28;20119;-82
2023/05/15 17:46:33;;;;;;;4.70;2.28;;;;;;;0.01;0.00;59042.03;10483827;28;20040;-81
2023/05/15 17:51:35;;;;;;;3.67;1.98;;;;;;;0.01;0.00;59042.03;10457515;28;20287;-82
2023/05/15 17:56:37;;;;;;;4.32;2.20;;;;;;;0.01;0.00;59042.03;10457002;28;20049;-81
2023/05/15 18:01:38;;;;;;;4.10;2.00;;;;;;;0.01;0.00;59042.03;10467172;28;20340;-82
2023/05/15 18:06:41;;;;;;;3.53;1.85;;;;;;;0.01;0.00;59042.03;10486359;28;20053;-80
2023/05/15 18:11:43;;;;;;;5.80;2.08;;;;;;;0.01;0.00;59042.03;10468572;28;20044;-81
2023/05/15 18:16:45;;;;;;;2.55;1.35;;;;;;;0.01;0.00;59042.03;10476746;28;20507;-81
2023/05/15 18:21:46;;;;;;;2.92;1.75;;;;;;;0.01;0.00;59042.03;10482160;28;20069;-81
2023/05/15 18:26:48;;;;;;;2.25;1.25;;;;;;;0.01;0.00;59042.03;10472936;28;20048;-80
2023/05/15 18:31:50;;;;;;;4.65;2.35;;;;;;;0.01;0.00;59042.03;10470903;28;20488;-81
2023/05/15 18:36:52;;;;;;;3.30;1.35;;;;;;;0.01;0.00;59042.03;10438700;28;20052;-81
2023/05/15 18:41:54;;;;;;;3.50;1.48;;;;;;;0.01;0.00;59042.03;10457966;28;20048;-79
2023/05/15 18:46:55;;;;;;;2.42;1.42;;;;;;;0.01;0.00;59042.03;10491581;28;20036;-80
2023/05/15 18:51:57;;;;;;;3.22;1.70;;;;;;;0.01;0.00;59042.03;10462971;28;20080;-81
2023/05/15 18:56:59;;;;;;;2.75;1.38;;;;;;;0.01;0.00;59042.03;10480449;28;20071;-79
2023/05/15 19:02:01;;;;;;;4.97;2.15;;;;;;;0.01;0.00;59042.03;10486229;28;20053;-81
2023/05/15 19:07:03;;;;;;;8.55;2.00;;;;;;;0.01;0.00;59042.03;10459124;28;20094;-81
2023/05/15 19:12:05;;;;;;;6.88;2.30;;;;;;;0.01;0.00;59042.03;10486308;28;20132;-83
2023/05/15 19:17:07;;;;;;;3.35;1.90;;;;;;;0.01;0.00;59042.03;10452825;28;20037;-83
2023/05/15 19:22:08;;;;;;;4.97;2.20;;;;;;;0.01;0.00;59042.03;10477994;28;20127;-81
2023/05/15 19:27:10;;;;;;;4.25;1.98;;;;;;;0.01;0.00;59042.03;10465416;28;20040;-82
2023/05/15 19:32:12;;;;;;;3.58;1.40;;;;;;;0.01;0.00;59042.03;10467170;28;20053;-82
2023/05/15 19:37:13;;;;;;;4.10;1.38;;;;;;;0.01;0.00;59042.03;10480633;28;20044;-79
2023/05/15 19:42:15;;;;;;;4.15;1.60;;;;;;;0.01;0.00;59042.03;10486043;28;20051;-79
2023/05/15 19:47:16;;;;;;;4.30;1.60;;;;;;;0.01;0.00;59042.03;10458871;28;20049;-80
2023/05/15 19:52:18;;;;;;;2.95;1.35;;;;;;;0.01;0.00;59042.03;10471397;28;20035;-80
2023/05/15 19:57:20;;;;;;;3.70;1.65;;;;;;;0.01;0.00;59042.03;10454886;28;20041;-81
2023/05/15 20:02:21;;;;;;;4.38;1.38;;;;;;;0.01;0.00;59042.03;10459288;28;20097;-79
2023/05/15 20:07:24;;;;;;;2.90;1.33;;;;;;;0.01;0.00;59042.03;10487065;28;20059;-80
2023/05/15 20:12:25;;;;;;;6.82;1.38;;;;;;;0.01;0.00;59042.03;10483705;28;20412;-81
2023/05/15 20:17:27;;;;;;;2.28;1.13;;;;;;;0.01;0.00;59042.03;10482548;28;20062;-80
2023/05/15 20:22:29;;;;;;;1.35;0.95;;;;;;;0.01;0.00;59042.03;10482754;28;20116;-80
2023/05/15 20:27:31;;;;;;;2.20;1.02;;;;;;;0.01;0.00;59042.03;10480413;28;20044;-81
2023/05/15 20:32:33;;;;;;;1.42;0.60;;;;;;;0.01;0.00;59042.03;10484687;28;20067;-80
2023/05/15 20:37:39;;;;;;;0.88;0.52;;;;;;;0.01;0.00;59042.03;10467539;28;20040;-80
2023/05/15 20:42:41;;;;;;;0.95;0.63;;;;;;;0.01;0.00;59042.03;10467248;28;20101;-81
2023/05/15 20:47:43;;;;;;;0.75;0.35;;;;;;;0.01;0.00;59042.03;10471050;28;20059;-80
2023/05/15 20:52:45;;;;;;;1.00;0.50;;;;;;;0.01;0.00;59042.03;10462788;28;20079;-80
2023/05/15 20:57:47;;;;;;;0.98;0.50;;;;;;;0.01;0.00;59042.03;10472615;28;20060;-82
2023/05/15 21:02:50;;;;;;;0.70;0.40;;;;;;;0.01;0.00;59042.03;10453864;28;20033;-82
2023/05/15 21:07:52;;;;;;;0.38;0.38;;;;;;;0.01;0.00;59042.03;10476167;28;20064;-81
2023/05/15 21:12:53;;;;;;;0.80;0.68;;;;;;;0.01;0.00;59042.03;10490831;28;20048;-81
2023/05/15 21:17:57;;;;;;;5.50;1.27;;;;;;;0.01;0.00;59042.03;10475514;28;20099;-81
2023/05/15 21:22:58;;;;;;;1.38;0.68;;;;;;;0.01;0.00;59042.03;10479176;28;20041;-82
2023/05/15 21:28:00;;;;;;;2.15;0.73;;;;;;;0.01;0.00;59042.03;10472440;28;20918;-81
2023/05/15 21:33:01;;;;;;;1.48;0.88;;;;;;;0.01;0.00;59042.03;10437424;28;20067;-79
2023/05/15 21:38:03;;;;;;;0.93;0.63;;;;;;;0.01;0.00;59042.03;10466207;28;20056;-79
2023/05/15 21:43:05;;;;;;;1.05;0.73;;;;;;;0.01;0.00;59042.03;10454527;28;20045;-79
2023/05/15 21:48:07;;;;;;;0.70;0.43;;;;;;;0.01;0.00;59042.03;10467873;28;20123;-79
2023/05/15 21:53:09;;;;;;;2.00;0.90;;;;;;;0.01;0.00;59042.03;10444653;28;20103;-78
2023/05/15 21:58:11;;;;;;;1.02;0.77;;;;;;;0.01;0.00;59042.03;10456015;28;20083;-79
2023/05/15 22:03:13;;;;;;;0.90;0.50;;;;;;;0.01;0.00;59042.03;10462948;28;20051;-81
2023/05/15 22:08:15;;;;;;;0.88;0.45;;;;;;;0.01;0.00;59042.03;10453197;28;20041;-81
2023/05/15 22:13:17;;;;;;;0.75;0.50;;;;;;;0.01;0.00;59042.03;10494137;28;20040;-80
2023/05/15 22:18:18;;;;;;;0.63;0.60;;;;;;;0.01;0.00;59042.03;10495281;28;20561;-81
2023/05/15 22:23:20;;;;;;;1.25;0.65;;;;;;;0.01;0.00;59042.03;10487515;28;20072;-81
2023/05/15 22:28:22;;;;;;;1.73;0.70;;;;;;;0.01;0.00;59042.03;10509789;28;20044;-81
2023/05/15 22:33:23;;;;;;;1.98;0.80;;;;;;;0.01;0.00;59042.03;10485829;28;20056;-80
2023/05/15 22:38:25;;;;;;;1.15;0.85;;;;;;;0.01;0.00;59042.03;10518360;28;20084;-79
2023/05/15 22:43:26;;;;;;;0.68;0.47;;;;;;;0.01;0.00;59042.03;10504042;28;20044;-80
2023/05/15 22:48:28;;;;;;;1.13;0.70;;;;;;;0.01;0.00;59042.03;10487506;28;20043;-80
2023/05/15 22:53:30;;;;;;;0.77;0.52;;;;;;;0.01;0.00;59042.03;10489494;28;20037;-80
2023/05/15 22:58:32;;;;;;;2.25;0.63;;;;;;;0.01;0.00;59042.03;10482087;28;20427;-80
2023/05/15 23:03:34;;;;;;;0.73;0.73;;;;;;;0.01;0.00;59042.03;10485026;28;20509;-80
2023/05/15 23:08:35;;;;;;;6.05;0.52;;;;;;;0.01;0.00;59042.03;10491121;28;20055;-79
2023/05/15 23:13:37;;;;;;;2.13;0.70;;;;;;;0.01;0.00;59042.03;10489482;28;20060;-80
2023/05/15 23:18:39;;;;;;;1.02;0.38;;;;;;;0.01;0.00;59042.03;10504326;28;20044;-80
2023/05/15 23:23:41;;;;;;;0.63;0.50;;;;;;;0.01;0.00;59042.03;10476221;28;20045;-80
2023/05/15 23:28:42;;;;;;;4.40;0.80;;;;;;;0.01;0.00;59042.03;10499228;28;20072;-80
2023/05/15 23:33:44;;;;;;;1.13;0.47;;;;;;;0.01;0.00;59042.03;10488231;28;20068;-80
2023/05/15 23:38:46;;;;;;;1.17;0.57;;;;;;;0.01;0.00;59042.03;10492327;28;20170;-80
2023/05/15 23:43:49;;;;;;;0.90;0.47;;;;;;;0.01;0.00;59042.03;10500353;28;20108;-79
2023/05/15 23:48:50;;;;;;;1.70;0.47;;;;;;;0.01;0.00;59042.03;10492863;28;20051;-81
2023/05/15 23:53:52;;;;;;;8.07;0.77;;;;;;;0.01;0.00;59042.03;10491264;28;20520;-81